Time;durP1;ratioP1;P1;durP2;ratioP2;P2;SDS_P1;SDS_P2;PMS_P1;PMS_P2;Temp;Humidity;BMP_temperature;BMP_pressure;BME280_temperature;BME280_humidity;BME280_pressure;Samples;Min_cycle;Max_cycle;Signal;HPM_P1;HPM_P2
2023/08/13 00:02:24;;;;;;;10.75;8.55;;;19.70;99.90;;;;;;5026852;28;20041;-49
2023/08/13 00:04:51;;;;;;;12.60;9.15;;;19.70;99.90;;;;;;5024009;28;20065;-44
2023/08/13 00:07:19;;;;;;;13.35;8.55;;;19.70;99.90;;;;;;5025564;28;20782;-53
2023/08/13 00:09:46;;;;;;;9.98;7.82;;;19.70;99.90;;;;;;5027196;28;20622;-42
2023/08/13 00:12:13;;;;;;;10.38;7.90;;;19.70;99.90;;;;;;5026122;28;20124;-49
2023/08/13 00:14:41;;;;;;;11.65;8.63;;;19.60;99.90;;;;;;5027603;28;20090;-48
2023/08/13 00:17:09;;;;;;;9.43;7.50;;;19.60;99.90;;;;;;5023524;28;20100;-46
2023/08/13 00:19:37;;;;;;;10.85;7.80;;;19.60;99.90;;;;;;5025502;28;20508;-48
2023/08/13 00:22:04;;;;;;;12.75;8.05;;;19.60;99.90;;;;;;5025924;28;20057;-47
2023/08/13 00:24:34;;;;;;;12.40;10.20;;;19.60;99.90;;;;;;5026195;28;20502;-45
2023/08/13 00:27:02;;;;;;;13.48;10.18;;;19.60;99.90;;;;;;5023636;28;20049;-50
2023/08/13 00:29:31;;;;;;;13.27;9.35;;;19.60;99.90;;;;;;5025193;28;20061;-49
2023/08/13 00:31:58;;;;;;;13.43;8.93;;;19.60;99.90;;;;;;5024911;28;20060;-49
2023/08/13 00:34:26;;;;;;;12.35;9.35;;;19.60;99.90;;;;;;5025472;28;20186;-51
2023/08/13 00:36:53;;;;;;;14.05;9.57;;;19.60;99.90;;;;;;5024104;28;20041;-44
2023/08/13 00:39:20;;;;;;;11.32;8.38;;;19.60;99.90;;;;;;5027013;28;20053;-50
2023/08/13 00:41:48;;;;;;;11.80;8.93;;;19.60;99.90;;;;;;5026753;28;20069;-46
2023/08/13 00:44:17;;;;;;;12.88;8.65;;;19.60;99.90;;;;;;5025900;28;20038;-46
2023/08/13 00:46:45;;;;;;;12.30;8.63;;;19.60;99.90;;;;;;5025311;28;20053;-50
2023/08/13 00:49:14;;;;;;;13.90;9.15;;;19.50;99.90;;;;;;5023438;28;20073;-45
2023/08/13 00:51:42;;;;;;;12.07;9.13;;;19.60;99.90;;;;;;5027012;28;20057;-44
2023/08/13 00:54:10;;;;;;;14.80;9.68;;;19.50;99.90;;;;;;5023995;28;20128;-44
2023/08/13 00:56:39;;;;;;;12.15;8.65;;;19.50;99.90;;;;;;5023555;28;20044;-44
2023/08/13 00:59:07;;;;;;;12.32;9.73;;;19.50;99.90;;;;;;5023619;28;20041;-54
2023/08/13 01:01:34;;;;;;;13.15;8.93;;;19.50;99.90;;;;;;5026116;28;20087;-50
2023/08/13 01:04:02;;;;;;;14.48;9.40;;;19.50;99.90;;;;;;5023593;28;20068;-44
2023/08/13 01:06:50;;;;;;;12.05;8.95;;;19.50;99.90;;;;;;5025465;28;20569;-45
2023/08/13 01:09:46;;;;;;;11.05;8.68;;;19.50;99.90;;;;;;5025463;28;20053;-46
2023/08/13 01:12:28;;;;;;;10.95;8.00;;;19.50;99.90;;;;;;5025402;28;20054;-46
2023/08/13 01:15:18;;;;;;;10.63;8.50;;;19.50;99.90;;;;;;5023735;28;20144;-49
2023/08/13 01:17:51;;;;;;;13.70;9.32;;;19.50;99.90;;;;;;5021363;28;20560;-50
2023/08/13 01:20:23;;;;;;;11.43;8.77;;;19.50;99.90;;;;;;5024174;28;20037;-45
2023/08/13 01:22:51;;;;;;;10.05;7.78;;;19.40;99.90;;;;;;5026791;28;20061;-47
2023/08/13 01:25:18;;;;;;;11.60;8.55;;;19.40;99.90;;;;;;5025791;28;20053;-47
2023/08/13 01:27:50;;;;;;;13.73;8.98;;;19.40;99.90;;;;;;5027458;28;20045;-55
2023/08/13 01:30:40;;;;;;;12.05;8.57;;;19.40;99.90;;;;;;5025459;28;20053;-48
2023/08/13 01:33:11;;;;;;;13.50;8.50;;;19.40;99.90;;;;;;5027815;28;20132;-48
2023/08/13 01:35:39;;;;;;;12.07;7.95;;;19.40;99.90;;;;;;5027964;28;20041;-46
2023/08/13 01:38:08;;;;;;;11.15;8.20;;;19.40;99.90;;;;;;5026490;28;20038;-47
2023/08/13 01:40:35;;;;;;;12.10;8.23;;;19.40;99.90;;;;;;5025907;28;20485;-46
2023/08/13 01:43:02;;;;;;;11.02;8.40;;;19.30;99.90;;;;;;5027768;28;20067;-47
2023/08/13 01:45:30;;;;;;;14.07;9.68;;;19.30;99.90;;;;;;5027358;28;20092;-50
2023/08/13 01:47:57;;;;;;;10.68;8.25;;;19.30;99.90;;;;;;5027121;28;20064;-54
2023/08/13 01:50:25;;;;;;;11.95;7.35;;;19.30;99.90;;;;;;5023220;28;20049;-49
2023/08/13 01:52:53;;;;;;;12.18;8.85;;;19.30;99.90;;;;;;5026272;28;20076;-46
2023/08/13 01:55:20;;;;;;;10.02;7.32;;;19.30;99.90;;;;;;5026303;28;20068;-53
2023/08/13 01:57:48;;;;;;;12.88;7.82;;;19.30;99.90;;;;;;5025549;28;20053;-46
2023/08/13 02:00:15;;;;;;;10.63;7.80;;;19.30;99.90;;;;;;5027075;28;20057;-46
2023/08/13 02:02:42;;;;;;;13.70;8.38;;;19.30;99.90;;;;;;5024195;28;20049;-48
2023/08/13 02:05:10;;;;;;;13.35;9.00;;;19.30;99.90;;;;;;5024338;28;20065;-45
2023/08/13 02:07:37;;;;;;;9.55;7.97;;;19.20;99.90;;;;;;5024862;28;20433;-45
2023/08/13 02:10:05;;;;;;;9.30;7.00;;;19.20;99.90;;;;;;5023679;28;20045;-46
2023/08/13 02:12:32;;;;;;;11.45;7.82;;;19.20;99.90;;;;;;5026155;28;20505;-45
2023/08/13 02:15:00;;;;;;;13.90;8.57;;;19.20;99.90;;;;;;5025432;28;20140;-43
2023/08/13 02:17:28;;;;;;;10.32;7.35;;;19.10;99.90;;;;;;5025963;28;20457;-51
2023/08/13 02:19:56;;;;;;;11.25;7.40;;;19.10;99.90;;;;;;5026732;28;20505;-45
2023/08/13 02:22:23;;;;;;;10.20;7.82;;;19.10;99.90;;;;;;5025233;28;20046;-49
2023/08/13 02:24:51;;;;;;;10.23;6.95;;;19.00;99.90;;;;;;5024813;28;20041;-46
2023/08/13 02:27:18;;;;;;;11.63;7.85;;;19.00;99.90;;;;;;5027646;28;20430;-46
2023/08/13 02:29:45;;;;;;;10.65;7.95;;;19.00;99.90;;;;;;5024664;28;20080;-49
2023/08/13 02:32:13;;;;;;;11.95;8.15;;;19.00;99.90;;;;;;5042527;28;20112;-49
2023/08/13 02:34:46;;;;;;;14.43;8.27;;;19.00;99.90;;;;;;5023961;28;20476;-47
2023/08/13 02:37:13;;;;;;;9.68;7.78;;;19.00;99.90;;;;;;5026143;28;20541;-44
2023/08/13 02:39:41;;;;;;;11.63;7.85;;;19.00;99.90;;;;;;5027750;28;20079;-47
2023/08/13 02:42:08;;;;;;;12.52;7.78;;;19.00;99.90;;;;;;5026336;28;20398;-49
2023/08/13 02:44:35;;;;;;;9.63;7.50;;;18.90;99.90;;;;;;5022794;28;20050;-50
2023/08/13 02:47:03;;;;;;;9.20;7.22;;;18.90;99.90;;;;;;5024693;28;20096;-47
2023/08/13 02:49:31;;;;;;;12.02;8.80;;;18.90;99.90;;;;;;5026602;28;20122;-50
2023/08/13 02:51:59;;;;;;;10.55;7.97;;;18.90;99.90;;;;;;5032316;28;20170;-47
2023/08/13 02:54:26;;;;;;;12.48;7.18;;;18.90;99.90;;;;;;5030389;28;20112;-46
2023/08/13 02:56:54;;;;;;;10.98;8.02;;;18.90;99.90;;;;;;5026263;28;20060;-46
2023/08/13 02:59:21;;;;;;;10.48;8.40;;;18.90;99.90;;;;;;5025077;28;20442;-45
2023/08/13 03:01:48;;;;;;;12.88;7.78;;;18.90;99.90;;;;;;5024160;28;20099;-47
2023/08/13 03:04:16;;;;;;;11.55;7.82;;;18.90;99.90;;;;;;5026496;28;20211;-45
2023/08/13 03:06:43;;;;;;;9.52;7.65;;;18.90;99.90;;;;;;5028023;28;20053;-43
2023/08/13 03:09:21;;;;;;;11.95;7.95;;;18.80;99.90;;;;;;5031347;28;20053;-48
2023/08/13 03:11:49;;;;;;;10.85;8.50;;;18.80;99.90;;;;;;5028914;28;20056;-52
2023/08/13 03:14:18;;;;;;;13.43;9.15;;;18.80;99.90;;;;;;5025967;28;20045;-47
2023/08/13 03:16:46;;;;;;;11.35;8.52;;;18.80;99.90;;;;;;5026349;28;20132;-53
2023/08/13 03:19:14;;;;;;;12.45;8.45;;;18.80;99.90;;;;;;5028924;28;20048;-45
2023/08/13 03:21:44;;;;;;;12.45;8.82;;;18.70;99.90;;;;;;5031986;28;20054;-46
2023/08/13 03:24:11;;;;;;;8.98;7.35;;;18.70;99.90;;;;;;5009939;28;20048;-50
2023/08/13 03:26:39;;;;;;;9.60;7.28;;;18.70;99.90;;;;;;5029064;28;20049;-48
2023/08/13 03:29:07;;;;;;;12.00;8.30;;;18.70;99.90;;;;;;5027063;28;20410;-46
2023/08/13 03:31:34;;;;;;;11.05;8.07;;;18.70;99.90;;;;;;5029013;28;20114;-49
2023/08/13 03:34:20;;;;;;;10.57;8.15;;;18.70;99.90;;;;;;5029068;28;20045;-45
2023/08/13 03:36:48;;;;;;;14.70;8.35;;;18.60;99.90;;;;;;5027970;28;20046;-48
2023/08/13 03:39:15;;;;;;;11.13;8.30;;;18.60;99.90;;;;;;5027143;28;20153;-52
2023/08/13 03:41:43;;;;;;;13.82;8.80;;;18.60;99.90;;;;;;5027858;28;20042;-47
2023/08/13 03:44:11;;;;;;;12.43;8.60;;;18.60;99.90;;;;;;5028675;28;20045;-45
2023/08/13 03:46:39;;;;;;;11.82;9.13;;;18.60;99.90;;;;;;5029398;28;20053;-49
2023/08/13 03:49:06;;;;;;;13.63;8.07;;;18.60;99.90;;;;;;5026049;28;20045;-50
2023/08/13 03:51:33;;;;;;;14.98;9.02;;;18.60;99.90;;;;;;5029555;28;20057;-48
2023/08/13 03:54:01;;;;;;;10.68;8.20;;;18.60;99.90;;;;;;5027267;28;20065;-49
2023/08/13 03:56:35;;;;;;;9.07;7.70;;;18.60;99.90;;;;;;5026677;28;20038;-47
2023/08/13 03:59:03;;;;;;;10.05;8.43;;;18.60;99.90;;;;;;5024820;28;20076;-47
2023/08/13 04:01:31;;;;;;;10.30;8.20;;;18.60;99.90;;;;;;5028498;28;20137;-45
2023/08/13 04:03:58;;;;;;;13.85;8.43;;;18.50;99.90;;;;;;5027364;28;20053;-52
2023/08/13 04:06:26;;;;;;;10.90;9.05;;;18.50;99.90;;;;;;5026597;28;20536;-49
2023/08/13 04:08:53;;;;;;;13.98;9.30;;;18.50;99.90;;;;;;5026611;28;20049;-50
2023/08/13 04:11:21;;;;;;;12.00;7.88;;;18.60;99.90;;;;;;5030852;28;20069;-45
2023/08/13 04:13:48;;;;;;;13.05;8.57;;;18.50;99.90;;;;;;5032695;28;20583;-47
2023/08/13 04:16:16;;;;;;;11.55;7.82;;;18.60;99.90;;;;;;5030704;28;20057;-51
2023/08/13 04:18:46;;;;;;;11.88;8.82;;;18.60;99.90;;;;;;5025289;28;20132;-45
2023/08/13 04:21:14;;;;;;;11.35;8.50;;;18.50;99.90;;;;;;5026027;28;20360;-46
2023/08/13 04:23:41;;;;;;;10.52;7.80;;;18.60;99.90;;;;;;5027175;28;20091;-47
2023/08/13 04:26:08;;;;;;;11.35;8.25;;;18.60;99.90;;;;;;5025478;28;20045;-47
2023/08/13 04:28:36;;;;;;;11.00;8.25;;;18.60;99.90;;;;;;5028089;28;20099;-47
2023/08/13 04:31:03;;;;;;;13.75;7.90;;;18.50;99.90;;;;;;5026455;28;20048;-48
2023/08/13 04:33:34;;;;;;;11.18;8.15;;;18.60;99.90;;;;;;5026768;28;20103;-45
2023/08/13 04:36:02;;;;;;;12.57;7.88;;;18.60;99.90;;;;;;5025434;28;20064;-47
2023/08/13 04:38:30;;;;;;;11.30;8.35;;;18.70;99.90;;;;;;5025670;28;20124;-50
2023/08/13 04:41:02;;;;;;;15.25;8.75;;;18.70;99.90;;;;;;5022455;28;20046;-49
2023/08/13 04:43:33;;;;;;;10.73;8.43;;;18.80;99.90;;;;;;5033435;28;20049;-49
2023/08/13 04:46:02;;;;;;;9.88;7.68;;;18.90;99.90;;;;;;5025481;28;20041;-49
2023/08/13 04:48:46;;;;;;;12.73;7.60;;;18.90;99.90;;;;;;5025808;28;20045;-49
2023/08/13 04:51:22;;;;;;;11.00;8.25;;;19.00;99.90;;;;;;5025878;28;20064;-48
2023/08/13 04:53:50;;;;;;;10.98;7.30;;;19.10;99.90;;;;;;5026171;28;20045;-51
2023/08/13 04:56:19;;;;;;;11.98;8.00;;;19.20;99.90;;;;;;5025467;28;20038;-47
2023/08/13 04:58:46;;;;;;;10.68;7.38;;;19.30;99.90;;;;;;5028904;28;20133;-48
2023/08/13 05:01:14;;;;;;;11.65;7.90;;;19.40;99.90;;;;;;5041418;28;20042;-44
2023/08/13 05:03:47;;;;;;;10.13;8.18;;;19.40;99.90;;;;;;5031697;28;20091;-46
2023/08/13 05:06:14;;;;;;;13.13;8.45;;;19.60;99.90;;;;;;5040103;28;20041;-48
2023/08/13 05:08:42;;;;;;;13.38;7.78;;;19.60;99.90;;;;;;5026806;28;20045;-43
2023/08/13 05:11:10;;;;;;;8.57;6.88;;;19.70;99.90;;;;;;5025256;28;20143;-51
2023/08/13 05:13:37;;;;;;;12.05;8.13;;;19.80;99.90;;;;;;5026122;28;20069;-48
2023/08/13 05:16:05;;;;;;;10.45;7.53;;;19.90;99.90;;;;;;5023977;28;20136;-46
2023/08/13 05:18:33;;;;;;;10.68;7.75;;;20.00;99.90;;;;;;5024291;28;20065;-52
2023/08/13 05:21:00;;;;;;;10.43;7.38;;;20.10;99.90;;;;;;5025808;28;20044;-46
2023/08/13 05:23:28;;;;;;;10.63;7.47;;;20.20;99.90;;;;;;5026423;28;20057;-46
2023/08/13 05:25:55;;;;;;;9.20;7.18;;;20.20;99.90;;;;;;5025039;28;20037;-48
2023/08/13 05:28:23;;;;;;;10.00;7.90;;;20.20;99.90;;;;;;5022398;28;20049;-45
2023/08/13 05:30:51;;;;;;;9.40;6.93;;;20.30;99.90;;;;;;5017224;28;20434;-47
2023/08/13 05:33:20;;;;;;;11.40;7.68;;;20.40;99.90;;;;;;5019138;28;20038;-45
2023/08/13 05:35:48;;;;;;;8.27;6.82;;;20.40;99.90;;;;;;5017307;28;20042;-50
2023/08/13 05:38:15;;;;;;;10.15;7.50;;;20.40;99.90;;;;;;5020734;28;20502;-49
2023/08/13 05:40:43;;;;;;;9.40;6.78;;;20.50;99.90;;;;;;5021115;28;20221;-48
2023/08/13 05:43:10;;;;;;;9.55;7.50;;;20.60;99.90;;;;;;5024222;28;20486;-45
2023/08/13 05:45:37;;;;;;;11.27;6.28;;;20.70;99.90;;;;;;5023176;28;20152;-48
2023/08/13 05:48:05;;;;;;;9.35;5.93;;;20.80;99.90;;;;;;5007599;28;20050;-47
2023/08/13 05:50:33;;;;;;;9.25;5.43;;;20.80;99.90;;;;;;5023322;28;20045;-50
2023/08/13 05:53:00;;;;;;;10.32;6.82;;;20.90;99.90;;;;;;5009775;28;20356;-47
2023/08/13 05:55:28;;;;;;;10.20;6.18;;;20.90;99.90;;;;;;5026338;28;20069;-46
2023/08/13 05:57:55;;;;;;;9.00;6.35;;;21.00;99.90;;;;;;5024561;28;20045;-44
2023/08/13 06:00:23;;;;;;;10.45;6.38;;;21.10;99.90;;;;;;5027293;28;20095;-46
2023/08/13 06:02:51;;;;;;;7.97;6.10;;;21.20;99.90;;;;;;5026881;28;20049;-46
2023/08/13 06:05:18;;;;;;;7.88;6.40;;;21.30;99.90;;;;;;5027326;28;20137;-48
2023/08/13 06:07:46;;;;;;;12.18;6.28;;;21.40;99.90;;;;;;5026653;28;20285;-47
2023/08/13 06:10:13;;;;;;;11.93;6.68;;;21.50;99.90;;;;;;5025589;28;20041;-44
2023/08/13 06:12:41;;;;;;;8.77;6.07;;;21.50;99.90;;;;;;5026447;28;20477;-47
2023/08/13 06:15:09;;;;;;;8.27;7.00;;;21.60;99.90;;;;;;5027949;28;20136;-48
2023/08/13 06:17:37;;;;;;;11.18;7.13;;;21.60;99.90;;;;;;5025662;28;20511;-51
2023/08/13 06:20:04;;;;;;;9.50;7.30;;;21.70;99.90;;;;;;5027207;28;20147;-44
2023/08/13 06:22:32;;;;;;;8.07;6.40;;;21.70;99.90;;;;;;5025141;28;20046;-52
2023/08/13 06:24:59;;;;;;;9.48;6.65;;;21.70;99.90;;;;;;5025063;28;20033;-47
2023/08/13 06:27:27;;;;;;;10.18;7.00;;;21.80;99.90;;;;;;5018662;28;20060;-51
2023/08/13 06:29:54;;;;;;;8.93;6.80;;;22.00;99.90;;;;;;5023175;28;20057;-53
2023/08/13 06:32:36;;;;;;;8.25;6.07;;;22.10;99.90;;;;;;5025223;28;20045;-44
2023/08/13 06:35:04;;;;;;;8.65;6.18;;;22.20;99.90;;;;;;5025437;28;20216;-48
2023/08/13 06:37:32;;;;;;;7.50;5.43;;;22.10;99.90;;;;;;5026710;28;20056;-46
2023/08/13 06:40:10;;;;;;;8.55;5.93;;;22.20;99.90;;;;;;5022657;28;20046;-45
2023/08/13 06:42:37;;;;;;;9.65;5.93;;;22.30;99.90;;;;;;5027341;28;20049;-50
2023/08/13 06:45:05;;;;;;;8.40;5.88;;;22.30;99.90;;;;;;5027176;28;20107;-47
2023/08/13 06:47:32;;;;;;;8.40;5.70;;;22.30;99.90;;;;;;5026851;28;20049;-48
2023/08/13 06:50:00;;;;;;;8.20;5.45;;;22.50;99.90;;;;;;5026934;28;20049;-47
2023/08/13 06:52:27;;;;;;;8.27;5.45;;;22.50;99.90;;;;;;5028383;28;20057;-42
2023/08/13 06:54:54;;;;;;;11.18;7.43;;;22.10;99.90;;;;;;5031152;28;20494;-45
2023/08/13 06:57:22;;;;;;;6.80;4.97;;;22.20;99.90;;;;;;5026824;28;20152;-52
2023/08/13 06:59:49;;;;;;;6.85;5.20;;;22.30;99.90;;;;;;5028199;28;20096;-48
2023/08/13 07:02:16;;;;;;;8.15;5.13;;;22.40;99.90;;;;;;5027809;28;20525;-49
2023/08/13 07:04:44;;;;;;;7.50;5.07;;;22.60;99.90;;;;;;5029656;28;20521;-50
2023/08/13 07:07:11;;;;;;;6.32;4.70;;;22.60;99.90;;;;;;5026084;28;20490;-48
2023/08/13 07:09:38;;;;;;;7.97;4.60;;;22.70;99.90;;;;;;5027344;28;20077;-48
2023/08/13 07:12:06;;;;;;;8.68;6.45;;;22.70;99.90;;;;;;5026959;28;20045;-48
2023/08/13 07:14:33;;;;;;;10.30;6.57;;;22.70;99.90;;;;;;5029165;28;20107;-46
2023/08/13 07:17:00;;;;;;;6.35;4.00;;;22.70;99.90;;;;;;5026944;28;20120;-52
2023/08/13 07:19:29;;;;;;;7.45;4.15;;;22.80;99.90;;;;;;5029382;28;20057;-45
2023/08/13 07:21:56;;;;;;;8.20;4.82;;;23.10;99.90;;;;;;5027231;28;20144;-48
2023/08/13 07:24:24;;;;;;;6.18;4.07;;;23.30;99.90;;;;;;5027003;28;20080;-46
2023/08/13 07:26:51;;;;;;;6.80;4.22;;;23.40;99.90;;;;;;5026207;28;20045;-47
2023/08/13 07:29:18;;;;;;;5.88;3.50;;;23.70;99.90;;;;;;5026923;28;20064;-48
2023/08/13 07:31:46;;;;;;;6.03;3.50;;;23.90;99.90;;;;;;5027316;28;20057;-45
2023/08/13 07:34:13;;;;;;;5.45;3.40;;;24.00;99.90;;;;;;5026301;28;20502;-48
2023/08/13 07:36:41;;;;;;;5.72;3.58;;;24.10;99.90;;;;;;5028151;28;20049;-45
2023/08/13 07:39:10;;;;;;;4.72;3.03;;;24.20;99.90;;;;;;5025979;28;20072;-44
2023/08/13 07:41:37;;;;;;;7.38;3.67;;;24.50;99.90;;;;;;5028011;28;20071;-46
2023/08/13 07:44:05;;;;;;;5.25;3.75;;;24.60;99.90;;;;;;5025841;28;20053;-47
2023/08/13 07:46:33;;;;;;;4.35;2.90;;;24.60;99.90;;;;;;5028237;28;20077;-47
2023/08/13 07:49:00;;;;;;;5.18;3.10;;;24.50;99.90;;;;;;5027065;28;20119;-46
2023/08/13 07:51:27;;;;;;;5.90;4.10;;;24.70;99.90;;;;;;5026708;28;20721;-50
2023/08/13 07:53:55;;;;;;;5.88;3.00;;;24.90;99.90;;;;;;5027512;28;20447;-45
2023/08/13 07:56:22;;;;;;;5.07;3.30;;;25.10;99.90;;;;;;5026451;28;20574;-48
2023/08/13 07:58:50;;;;;;;7.38;4.63;;;25.00;99.90;;;;;;5025953;28;20046;-48
2023/08/13 08:01:17;;;;;;;6.15;3.53;;;24.90;99.90;;;;;;5027511;28;20068;-42
2023/08/13 08:03:44;;;;;;;7.43;3.40;;;24.40;99.90;;;;;;5026652;28;20136;-46
2023/08/13 08:06:12;;;;;;;6.75;3.47;;;24.20;99.90;;;;;;5024207;28;20048;-48
2023/08/13 08:08:39;;;;;;;5.57;3.72;;;24.40;99.90;;;;;;5027085;28;20057;-47
2023/08/13 08:11:07;;;;;;;6.43;3.00;;;24.60;99.90;;;;;;5026042;28;20585;-46
2023/08/13 08:13:34;;;;;;;5.85;3.42;;;24.60;99.90;;;;;;5028224;28;20049;-47
2023/08/13 08:16:02;;;;;;;5.53;3.10;;;24.60;99.90;;;;;;5025735;28;20053;-43
2023/08/13 08:18:30;;;;;;;4.82;3.53;;;24.70;99.90;;;;;;5029231;28;20131;-51
2023/08/13 08:20:57;;;;;;;5.93;3.58;;;24.40;99.90;;;;;;5032310;28;20053;-46
2023/08/13 08:23:25;;;;;;;7.15;3.53;;;24.50;99.90;;;;;;5033652;28;20060;-45
2023/08/13 08:25:52;;;;;;;6.05;3.40;;;24.30;99.90;;;;;;5032854;28;20331;-42
2023/08/13 08:28:19;;;;;;;5.82;3.38;;;24.30;99.90;;;;;;5030345;28;20048;-50
2023/08/13 08:30:47;;;;;;;5.78;3.50;;;24.50;99.90;;;;;;5024169;28;20140;-49
2023/08/13 08:33:14;;;;;;;5.97;3.65;;;24.30;99.90;;;;;;5027631;28;20073;-45
2023/08/13 08:35:41;;;;;;;5.05;3.00;;;24.30;99.90;;;;;;5027791;28;20049;-45
2023/08/13 08:38:08;;;;;;;5.35;3.50;;;24.10;99.90;;;;;;5026867;28;20045;-51
2023/08/13 08:40:36;;;;;;;5.32;3.15;;;24.10;99.90;;;;;;5026142;28;20396;-49
2023/08/13 08:43:03;;;;;;;5.28;3.35;;;24.10;99.90;;;;;;5026149;28;20541;-48
2023/08/13 08:45:32;;;;;;;6.00;3.80;;;24.00;99.90;;;;;;5026478;28;20491;-49
2023/08/13 08:48:00;;;;;;;4.22;3.20;;;24.10;99.90;;;;;;5022125;28;20139;-48
2023/08/13 08:50:28;;;;;;;5.50;3.30;;;24.20;99.90;;;;;;5023187;28;20049;-49
2023/08/13 08:52:56;;;;;;;4.57;3.20;;;24.20;99.90;;;;;;5021874;28;20462;-47
2023/08/13 08:55:24;;;;;;;8.60;3.90;;;24.20;99.90;;;;;;5023022;28;20133;-47
2023/08/13 08:57:54;;;;;;;6.05;4.10;;;24.20;99.90;;;;;;5025653;28;20050;-48
2023/08/13 09:00:23;;;;;;;5.80;4.20;;;24.20;99.90;;;;;;5026478;28;20049;-46
2023/08/13 09:02:50;;;;;;;7.35;4.10;;;24.00;99.90;;;;;;5027876;28;20041;-47
2023/08/13 09:05:20;;;;;;;5.45;3.85;;;24.10;99.90;;;;;;5026699;28;20056;-49
2023/08/13 09:07:47;;;;;;;6.47;3.85;;;23.90;99.90;;;;;;5025194;28;20053;-46
2023/08/13 09:10:14;;;;;;;6.93;3.90;;;23.80;99.90;;;;;;5026012;28;20073;-47
2023/08/13 09:12:42;;;;;;;6.65;3.40;;;23.90;99.90;;;;;;5027752;28;20053;-50
2023/08/13 09:15:11;;;;;;;6.25;3.60;;;23.80;99.90;;;;;;5024729;28;20049;-43
2023/08/13 09:17:39;;;;;;;5.35;3.58;;;23.90;99.90;;;;;;5026066;28;20191;-50
2023/08/13 09:20:25;;;;;;;6.00;4.05;;;24.00;99.90;;;;;;5025795;28;20056;-46
2023/08/13 09:22:52;;;;;;;5.50;4.00;;;24.20;99.90;;;;;;5021433;28;20046;-50
2023/08/13 09:25:20;;;;;;;4.90;3.80;;;24.60;99.90;;;;;;5026487;28;20045;-47
2023/08/13 09:27:47;;;;;;;6.28;4.03;;;25.00;99.90;;;;;;5026274;28;20080;-45
2023/08/13 09:30:28;;;;;;;5.93;4.43;;;25.30;99.90;;;;;;5025236;28;20045;-49
2023/08/13 09:32:57;;;;;;;6.60;4.45;;;25.50;99.90;;;;;;5024331;28;20041;-46
2023/08/13 09:35:26;;;;;;;7.28;4.78;;;25.60;99.90;;;;;;5021784;28;20067;-52
2023/08/13 09:37:54;;;;;;;5.45;4.15;;;25.70;99.90;;;;;;5021589;28;20052;-48
2023/08/13 09:40:21;;;;;;;5.93;4.70;;;25.70;99.90;;;;;;5022245;28;20144;-49
2023/08/13 09:42:55;;;;;;;5.30;3.88;;;25.90;99.90;;;;;;5022885;28;20101;-47
2023/08/13 09:45:26;;;;;;;7.43;4.63;;;25.60;99.90;;;;;;5024057;28;20208;-48
2023/08/13 09:47:54;;;;;;;;;;;25.60;99.90;;;;;;5023177;28;20049;-49
2023/08/13 09:50:25;;;;;;;10.00;6.65;;;25.60;99.90;;;;;;5023800;28;19966;-47
2023/08/13 09:52:54;;;;;;;7.50;4.22;;;25.60;99.90;;;;;;5022566;28;20522;-51
2023/08/13 09:55:27;;;;;;;7.13;4.25;;;25.70;99.90;;;;;;5022187;28;20103;-48
2023/08/13 09:57:58;;;;;;;5.20;3.63;;;25.70;99.90;;;;;;5023512;28;20053;-49
2023/08/13 10:00:27;;;;;;;5.38;3.92;;;25.70;99.90;;;;;;5022803;28;20114;-51
2023/08/13 10:02:54;;;;;;;5.03;3.40;;;25.70;99.90;;;;;;5024557;28;20065;-50
2023/08/13 10:05:22;;;;;;;6.47;3.28;;;25.70;99.90;;;;;;5025614;28;20041;-50
2023/08/13 10:07:50;;;;;;;4.97;3.70;;;25.90;99.90;;;;;;5024265;28;20056;-51
2023/08/13 10:10:17;;;;;;;4.95;3.92;;;25.80;99.90;;;;;;5023624;28;20057;-50
2023/08/13 10:12:45;;;;;;;6.25;4.55;;;26.00;99.90;;;;;;5024884;28;20121;-49
2023/08/13 10:15:13;;;;;;;6.30;4.32;;;26.30;99.90;;;;;;5024386;28;20501;-47
2023/08/13 10:17:44;;;;;;;7.00;4.10;;;26.60;99.90;;;;;;5025740;28;20049;-50
2023/08/13 10:20:12;;;;;;;4.80;3.63;;;27.20;99.90;;;;;;5025617;28;20423;-50
2023/08/13 10:22:40;;;;;;;5.55;4.28;;;27.60;99.90;;;;;;5025990;28;20133;-49
2023/08/13 10:25:08;;;;;;;7.25;4.47;;;27.50;99.90;;;;;;5026567;28;20128;-49
2023/08/13 10:27:42;;;;;;;6.45;4.57;;;27.10;99.90;;;;;;5025600;28;20518;-49
2023/08/13 10:30:13;;;;;;;6.30;4.70;;;27.40;99.90;;;;;;5025475;28;20144;-44
2023/08/13 10:32:53;;;;;;;7.78;4.65;;;27.50;99.90;;;;;;5025661;28;20092;-47
2023/08/13 10:35:34;;;;;;;4.63;3.65;;;27.30;99.90;;;;;;5026422;28;20077;-49
2023/08/13 10:38:03;;;;;;;7.78;4.57;;;27.10;99.90;;;;;;5023902;28;20050;-48
2023/08/13 10:40:31;;;;;;;5.25;4.32;;;27.00;99.90;;;;;;5024998;28;20046;-47
2023/08/13 10:43:00;;;;;;;5.10;4.30;;;26.90;99.90;;;;;;5026382;28;20060;-49
2023/08/13 10:45:30;;;;;;;6.03;4.15;;;27.20;99.90;;;;;;5024347;28;20054;-46
2023/08/13 10:48:02;;;;;;;7.10;4.43;;;27.00;99.90;;;;;;5025162;28;20107;-49
2023/08/13 10:50:43;;;;;;;5.70;4.22;;;26.60;99.90;;;;;;5024124;28;20049;-45
2023/08/13 10:53:12;;;;;;;7.40;4.90;;;26.60;99.90;;;;;;5027296;28;20074;-46
2023/08/13 10:55:42;;;;;;;6.80;4.50;;;26.70;99.90;;;;;;5026529;28;20046;-48
2023/08/13 10:58:42;;;;;;;6.50;4.35;;;26.70;99.90;;;;;;5022550;28;20042;-50
2023/08/13 11:01:09;;;;;;;6.05;4.45;;;26.70;99.90;;;;;;5024625;28;20068;-54
2023/08/13 11:03:51;;;;;;;6.70;4.35;;;26.50;99.90;;;;;;5024510;28;20069;-50
2023/08/13 11:06:20;;;;;;;5.97;4.55;;;26.10;99.90;;;;;;5025568;28;20121;-50
2023/08/13 11:08:48;;;;;;;6.30;4.38;;;25.90;99.90;;;;;;5027163;28;20073;-48
2023/08/13 11:11:17;;;;;;;5.47;4.20;;;26.00;99.90;;;;;;5023592;28;20187;-45
2023/08/13 11:13:45;;;;;;;5.38;4.22;;;26.30;99.90;;;;;;5025995;28;20065;-47
2023/08/13 11:16:13;;;;;;;6.65;4.38;;;26.20;99.90;;;;;;5025969;28;20050;-47
2023/08/13 11:18:40;;;;;;;6.25;4.15;;;26.30;99.90;;;;;;5027838;28;20081;-48
2023/08/13 11:21:08;;;;;;;6.35;4.60;;;26.60;99.90;;;;;;5025430;28;20052;-51
2023/08/13 11:23:36;;;;;;;7.03;4.70;;;26.80;99.90;;;;;;5026054;28;20142;-46
2023/08/13 11:26:04;;;;;;;7.10;4.65;;;27.20;99.90;;;;;;5023603;28;20045;-47
2023/08/13 11:28:32;;;;;;;6.20;3.65;;;27.30;99.90;;;;;;5028030;28;20046;-46
2023/08/13 11:31:00;;;;;;;6.65;4.18;;;27.00;99.90;;;;;;5026838;28;20049;-46
2023/08/13 11:33:27;;;;;;;7.65;4.65;;;27.40;99.90;;;;;;5030998;28;20056;-47
2023/08/13 11:35:56;;;;;;;5.80;4.05;;;27.90;99.90;;;;;;5028802;28;20045;-50
2023/08/13 11:38:24;;;;;;;6.93;4.97;;;28.20;99.90;;;;;;5027194;28;20045;-48
2023/08/13 11:40:51;;;;;;;6.45;4.90;;;28.50;99.90;;;;;;5030220;28;20116;-49
2023/08/13 11:43:19;;;;;;;6.03;4.28;;;29.40;99.90;;;;;;5025664;28;20124;-51
2023/08/13 11:45:48;;;;;;;6.82;4.85;;;29.90;99.90;;;;;;5029200;28;20499;-53
2023/08/13 11:48:18;;;;;;;9.65;4.75;;;30.20;99.90;;;;;;5027976;28;20052;-48
2023/08/13 11:50:52;;;;;;;8.80;6.88;;;30.60;99.90;;;;;;5026945;28;20045;-44
2023/08/13 11:53:43;;;;;;;5.55;4.93;;;30.80;99.90;;;;;;5029634;28;20041;-48
2023/08/13 11:56:11;;;;;;;6.60;5.43;;;30.80;99.90;;;;;;5028610;28;20396;-46
2023/08/13 11:58:40;;;;;;;7.53;5.03;;;31.10;99.90;;;;;;5028891;28;20038;-52
2023/08/13 12:01:10;;;;;;;9.18;7.65;;;31.00;99.90;;;;;;5029374;28;20459;-47
2023/08/13 12:03:43;;;;;;;6.15;5.43;;;31.10;99.90;;;;;;5031095;28;20045;-46
2023/08/13 12:06:11;;;;;;;6.63;5.32;;;31.40;99.90;;;;;;5029082;28;20049;-45
2023/08/13 12:08:46;;;;;;;6.07;5.43;;;31.80;99.90;;;;;;5030168;28;20049;-48
2023/08/13 12:11:15;;;;;;;7.00;5.35;;;31.70;99.90;;;;;;5028637;28;20492;-44
2023/08/13 12:13:46;;;;;;;9.60;6.38;;;31.70;99.90;;;;;;5029850;28;20041;-48
2023/08/13 12:16:14;;;;;;;6.25;5.55;;;31.10;99.90;;;;;;5026256;28;20084;-48
2023/08/13 12:18:42;;;;;;;6.15;5.57;;;30.70;99.90;;;;;;5029713;28;20068;-48
2023/08/13 12:21:09;;;;;;;6.82;5.18;;;30.80;99.90;;;;;;5027545;28;20045;-49
2023/08/13 12:23:36;;;;;;;6.10;5.50;;;29.70;99.90;;;;;;5029094;28;20193;-45
2023/08/13 12:26:04;;;;;;;6.40;5.60;;;29.20;99.90;;;;;;5026388;28;20053;-49
2023/08/13 12:28:32;;;;;;;7.13;6.30;;;29.30;99.90;;;;;;5029229;28;20335;-49
2023/08/13 12:30:59;;;;;;;12.35;7.47;;;29.30;99.90;;;;;;5026401;28;20040;-46
2023/08/13 12:33:27;;;;;;;6.65;5.80;;;29.10;99.90;;;;;;5029517;28;20077;-51
2023/08/13 12:35:55;;;;;;;5.95;5.32;;;29.20;99.90;;;;;;5027055;28;20568;-48
2023/08/13 12:38:22;;;;;;;8.10;7.20;;;29.40;99.90;;;;;;5027635;28;20155;-49
2023/08/13 12:40:50;;;;;;;6.72;5.70;;;29.30;99.90;;;;;;5028587;28;20313;-45
2023/08/13 12:43:17;;;;;;;6.43;5.05;;;29.30;99.90;;;;;;5028635;28;20471;-45
2023/08/13 12:45:44;;;;;;;5.57;4.93;;;28.50;99.90;;;;;;5028804;28;20053;-49
2023/08/13 12:48:12;;;;;;;7.13;5.50;;;28.60;99.90;;;;;;5028004;28;20049;-47
2023/08/13 12:50:39;;;;;;;7.55;5.68;;;28.90;99.90;;;;;;5027842;28;20045;-46
2023/08/13 12:53:06;;;;;;;6.25;4.63;;;29.20;99.90;;;;;;5029074;28;20060;-45